Time;durP1;ratioP1;P1;durP2;ratioP2;P2;SDS_P1;SDS_P2;PMS_P1;PMS_P2;Temp;Humidity;BMP_temperature;BMP_pressure;BME280_temperature;BME280_humidity;BME280_pressure;Samples;Min_cycle;Max_cycle;Signal;HPM_P1;HPM_P2
2023/06/03 00:01:27;;;;;;;3.72;1.30;;;16.40;92.70;;;;;;6159604;23;20005;-89
2023/06/03 00:03:54;;;;;;;2.63;1.20;;;16.30;92.80;;;;;;6159070;23;20418;-89
2023/06/03 00:06:20;;;;;;;2.85;1.10;;;16.20;92.90;;;;;;6159232;23;20450;-90
2023/06/03 00:08:45;;;;;;;2.42;0.90;;;16.20;92.70;;;;;;6158717;23;20104;-90
2023/06/03 00:11:11;;;;;;;3.42;1.25;;;16.20;92.70;;;;;;6159441;23;20362;-90
2023/06/03 00:13:40;;;;;;;3.22;1.10;;;16.10;92.50;;;;;;6158523;23;20009;-89
2023/06/03 00:16:06;;;;;;;3.13;1.15;;;16.10;92.70;;;;;;6159771;23;20028;-89
2023/06/03 00:18:32;;;;;;;3.90;1.13;;;16.00;92.80;;;;;;6159509;23;20017;-89
2023/06/03 00:21:01;;;;;;;4.38;1.00;;;16.00;92.80;;;;;;6158840;23;20017;-89
2023/06/03 00:23:27;;;;;;;2.70;1.00;;;15.90;92.90;;;;;;6159312;23;20028;-89
2023/06/03 00:25:53;;;;;;;3.17;1.17;;;15.90;92.90;;;;;;6185937;23;20014;-90
2023/06/03 00:28:19;;;;;;;4.47;1.10;;;15.80;92.90;;;;;;6158522;23;20140;-90
2023/06/03 00:30:45;;;;;;;4.18;1.27;;;15.80;92.90;;;;;;6185689;23;20016;-89
2023/06/03 00:33:11;;;;;;;2.42;1.10;;;15.70;92.80;;;;;;6159267;23;20516;-90
2023/06/03 00:35:37;;;;;;;3.20;1.08;;;15.70;92.80;;;;;;6158747;23;20009;-90
2023/06/03 00:38:02;;;;;;;4.65;1.23;;;15.70;92.80;;;;;;6186682;23;20013;-89
2023/06/03 00:40:28;;;;;;;3.58;1.20;;;15.60;93.10;;;;;;6186003;23;20017;-90
2023/06/03 00:42:54;;;;;;;3.55;1.33;;;15.60;92.70;;;;;;6184657;23;20096;-90
2023/06/03 00:45:20;;;;;;;2.40;1.10;;;15.50;92.80;;;;;;6185193;23;20092;-90
2023/06/03 00:47:47;;;;;;;3.08;1.15;;;15.50;93.00;;;;;;6159333;23;20020;-90
2023/06/03 00:50:14;;;;;;;3.25;1.23;;;15.40;92.90;;;;;;6158808;23;20342;-90
2023/06/03 00:52:40;;;;;;;2.55;1.10;;;15.40;92.90;;;;;;6158781;23;20525;-89
2023/06/03 00:55:10;;;;;;;2.90;1.02;;;15.30;92.80;;;;;;6185117;23;20017;-89
2023/06/03 00:57:45;;;;;;;2.10;0.93;;;15.30;93.00;;;;;;6184884;23;20100;-90
2023/06/03 01:00:11;;;;;;;3.15;1.10;;;15.20;93.00;;;;;;6186033;23;20048;-90
2023/06/03 01:02:43;;;;;;;2.45;1.00;;;15.20;93.10;;;;;;6158478;23;20024;-89
2023/06/03 01:05:22;;;;;;;4.05;1.30;;;15.20;93.20;;;;;;6157347;23;20529;-90
2023/06/03 01:08:08;;;;;;;4.47;1.17;;;15.10;93.30;;;;;;6158960;23;20032;-90
2023/06/03 01:11:18;;;;;;;2.97;1.20;;;15.10;93.20;;;;;;6158628;23;20024;-89
2023/06/03 01:14:08;;;;;;;2.63;1.10;;;15.10;92.90;;;;;;6158901;23;20021;-90
2023/06/03 01:16:41;;;;;;;2.70;0.98;;;15.00;93.10;;;;;;6158594;23;20092;-89
2023/06/03 01:19:29;;;;;;;2.88;1.00;;;15.00;93.60;;;;;;6159404;23;20096;-90
2023/06/03 01:22:00;;;;;;;2.55;1.05;;;15.00;93.20;;;;;;6159449;23;20017;-90
2023/06/03 01:24:26;;;;;;;2.80;1.10;;;14.90;93.10;;;;;;6185263;23;20017;-90
2023/06/03 01:26:52;;;;;;;2.97;1.00;;;14.90;93.10;;;;;;6159182;23;20017;-90
2023/06/03 01:29:18;;;;;;;2.80;0.93;;;14.80;93.00;;;;;;6186042;23;20079;-89
2023/06/03 01:31:43;;;;;;;2.53;0.90;;;14.80;93.10;;;;;;6185023;23;20111;-89
2023/06/03 01:34:10;;;;;;;2.67;1.00;;;14.70;93.00;;;;;;6159772;23;20028;-89
2023/06/03 01:36:36;;;;;;;3.78;1.20;;;14.70;93.00;;;;;;6158553;23;20092;-89
2023/06/03 01:39:03;;;;;;;1.95;0.90;;;14.60;93.20;;;;;;6184655;23;20341;-90
2023/06/03 01:41:31;;;;;;;2.67;1.00;;;14.60;93.20;;;;;;6185816;23;20442;-90
2023/06/03 01:43:57;;;;;;;2.70;0.90;;;14.60;93.30;;;;;;6158991;23;20048;-89
2023/06/03 01:46:23;;;;;;;2.92;1.02;;;14.60;93.30;;;;;;6158814;23;20446;-89
2023/06/03 01:48:50;;;;;;;3.25;1.08;;;14.50;93.10;;;;;;6158519;23;20014;-89
2023/06/03 01:51:15;;;;;;;2.42;0.98;;;14.50;93.10;;;;;;6185523;23;20047;-89
2023/06/03 01:53:41;;;;;;;3.15;0.90;;;14.40;93.20;;;;;;6161168;23;20044;-89
2023/06/03 01:56:07;;;;;;;2.63;0.90;;;14.40;93.40;;;;;;6161520;23;20024;-89
2023/06/03 01:58:32;;;;;;;4.35;1.10;;;14.40;93.40;;;;;;6160533;23;20326;-88
2023/06/03 02:00:58;;;;;;;3.90;1.20;;;14.30;93.30;;;;;;6187412;23;20350;-89
2023/06/03 02:03:23;;;;;;;2.75;1.13;;;14.30;93.20;;;;;;6161395;23;20438;-89
2023/06/03 02:05:49;;;;;;;3.13;1.17;;;14.30;93.30;;;;;;6159694;23;20021;-89
2023/06/03 02:08:16;;;;;;;2.83;1.05;;;14.30;93.10;;;;;;6187273;23;20012;-89
2023/06/03 02:10:42;;;;;;;2.67;0.90;;;14.30;93.30;;;;;;6187381;23;20071;-89
2023/06/03 02:13:07;;;;;;;2.90;0.85;;;14.30;92.60;;;;;;6160407;23;20017;-89
2023/06/03 02:15:33;;;;;;;3.38;1.00;;;14.20;92.90;;;;;;6160416;23;20020;-88
2023/06/03 02:17:59;;;;;;;1.92;0.85;;;14.20;93.00;;;;;;6160820;23;20021;-88
2023/06/03 02:20:25;;;;;;;2.33;1.10;;;14.20;93.00;;;;;;6186599;23;20016;-88
2023/06/03 02:22:53;;;;;;;2.42;0.85;;;14.10;92.80;;;;;;6160471;23;20052;-89
2023/06/03 02:25:20;;;;;;;2.72;0.95;;;14.00;92.80;;;;;;6160804;23;20032;-89
2023/06/03 02:27:46;;;;;;;4.20;0.95;;;14.00;92.80;;;;;;6186191;23;20009;-89
2023/06/03 02:30:11;;;;;;;2.30;0.93;;;13.90;92.80;;;;;;6160158;23;20024;-89
2023/06/03 02:32:37;;;;;;;3.88;1.33;;;13.90;92.90;;;;;;6187234;23;20009;-89
2023/06/03 02:35:03;;;;;;;2.60;0.90;;;13.80;92.50;;;;;;6160516;23;20100;-89
2023/06/03 02:37:30;;;;;;;3.50;1.17;;;13.80;92.60;;;;;;6160732;23;20051;-89
2023/06/03 02:39:56;;;;;;;3.38;1.05;;;13.80;92.90;;;;;;6186564;23;20024;-89
2023/06/03 02:42:22;;;;;;;3.67;0.88;;;13.70;92.90;;;;;;6186174;23;20025;-89
2023/06/03 02:44:47;;;;;;;3.03;0.90;;;13.70;92.80;;;;;;6187494;23;20028;-89
2023/06/03 02:47:14;;;;;;;4.55;1.10;;;13.60;92.90;;;;;;6160549;23;20330;-89
2023/06/03 02:49:41;;;;;;;2.83;0.95;;;13.60;92.40;;;;;;6159605;23;20377;-89
2023/06/03 02:52:07;;;;;;;2.58;1.00;;;13.60;92.60;;;;;;6160645;23;20013;-89
2023/06/03 02:54:32;;;;;;;2.25;0.93;;;13.50;92.80;;;;;;6159419;23;20025;-89
2023/06/03 02:56:58;;;;;;;2.78;1.00;;;13.50;92.90;;;;;;6187125;23;20017;-89
2023/06/03 02:59:24;;;;;;;3.47;1.30;;;13.40;93.10;;;;;;6187630;23;20023;-89
2023/06/03 03:01:50;;;;;;;2.22;0.85;;;13.40;93.10;;;;;;6185183;23;20599;-89
2023/06/03 03:04:15;;;;;;;4.85;1.10;;;13.40;93.20;;;;;;6160450;23;20100;-88
2023/06/03 03:06:41;;;;;;;2.67;0.90;;;13.40;93.20;;;;;;6160081;23;20454;-88
2023/06/03 03:09:07;;;;;;;2.45;1.00;;;13.30;93.20;;;;;;6158968;23;20021;-89
2023/06/03 03:11:33;;;;;;;2.25;1.00;;;13.30;93.20;;;;;;6186789;23;20036;-89
2023/06/03 03:13:59;;;;;;;3.13;1.05;;;13.20;93.30;;;;;;6160496;23;20025;-89
2023/06/03 03:16:26;;;;;;;3.05;1.00;;;13.20;93.40;;;;;;6186369;23;20013;-88
2023/06/03 03:18:52;;;;;;;3.13;0.90;;;13.20;93.60;;;;;;6159737;23;20028;-89
2023/06/03 03:21:17;;;;;;;3.00;1.10;;;13.10;93.60;;;;;;6185683;23;20092;-88
2023/06/03 03:23:43;;;;;;;3.42;1.00;;;13.20;93.70;;;;;;6158744;23;20397;-89
2023/06/03 03:26:09;;;;;;;2.95;0.98;;;13.10;93.60;;;;;;6186095;23;20021;-89
2023/06/03 03:28:35;;;;;;;1.80;0.80;;;13.10;93.70;;;;;;6159684;23;20017;-90
2023/06/03 03:31:01;;;;;;;4.03;1.13;;;13.10;94.00;;;;;;6159482;23;20027;-89
2023/06/03 03:33:27;;;;;;;2.63;1.00;;;13.00;93.60;;;;;;6160142;23;20096;-90
2023/06/03 03:35:52;;;;;;;2.65;0.90;;;13.10;93.70;;;;;;6160088;23;20096;-89
2023/06/03 03:38:19;;;;;;;3.03;1.13;;;13.00;93.80;;;;;;6158866;23;20056;-88
2023/06/03 03:40:45;;;;;;;2.67;0.93;;;13.00;93.80;;;;;;6184595;23;20092;-89
2023/06/03 03:43:16;;;;;;;2.13;1.00;;;12.90;93.80;;;;;;6158426;23;20052;-88
2023/06/03 03:45:42;;;;;;;2.28;1.10;;;12.90;93.80;;;;;;6157866;23;20408;-89
2023/06/03 03:48:15;;;;;;;2.63;1.13;;;12.90;93.80;;;;;;6185608;23;20044;-88
2023/06/03 03:50:40;;;;;;;2.55;1.00;;;12.90;93.80;;;;;;6158640;23;20024;-88
2023/06/03 03:53:09;;;;;;;3.38;1.23;;;12.80;93.90;;;;;;6158987;23;20025;-88
2023/06/03 03:55:47;;;;;;;3.22;1.08;;;12.90;93.90;;;;;;6158688;23;20013;-87
2023/06/03 03:58:36;;;;;;;3.47;1.00;;;12.80;93.90;;;;;;6158356;23;20067;-88
2023/06/03 04:01:12;;;;;;;3.90;1.10;;;12.80;93.70;;;;;;6159676;23;20017;-88
2023/06/03 04:03:42;;;;;;;3.15;1.25;;;12.70;93.70;;;;;;6159733;23;20028;-88
2023/06/03 04:06:10;;;;;;;3.35;1.10;;;12.70;93.70;;;;;;6185686;23;20103;-88
2023/06/03 04:08:43;;;;;;;2.63;1.15;;;12.70;93.70;;;;;;6159453;23;20021;-89
2023/06/03 04:11:32;;;;;;;6.35;1.33;;;12.60;93.70;;;;;;6159284;23;20103;-88
2023/06/03 04:13:58;;;;;;;3.78;1.00;;;12.60;93.60;;;;;;6159255;23;20018;-88
2023/06/03 04:16:41;;;;;;;3.17;1.05;;;12.60;93.60;;;;;;6159298;23;20031;-89
2023/06/03 04:19:18;;;;;;;3.38;1.10;;;12.50;93.50;;;;;;6159696;23;20052;-89
2023/06/03 04:21:44;;;;;;;2.65;1.20;;;12.60;93.50;;;;;;6186030;23;20056;-88
2023/06/03 04:24:11;;;;;;;3.03;1.25;;;12.50;93.60;;;;;;6159610;23;20020;-88
2023/06/03 04:26:36;;;;;;;4.13;1.23;;;12.50;93.70;;;;;;6159146;23;20013;-87
2023/06/03 04:29:03;;;;;;;3.35;1.13;;;12.50;94.00;;;;;;6159634;23;20017;-88
2023/06/03 04:31:31;;;;;;;3.17;1.20;;;12.40;93.60;;;;;;6185981;23;20017;-88
2023/06/03 04:33:56;;;;;;;2.95;1.00;;;12.40;93.60;;;;;;6185439;23;20020;-88
2023/06/03 04:36:22;;;;;;;2.88;1.10;;;12.40;93.50;;;;;;6159495;23;20024;-88
2023/06/03 04:38:48;;;;;;;3.83;1.25;;;12.30;93.40;;;;;;6159810;23;20024;-88
2023/06/03 04:41:16;;;;;;;6.45;1.17;;;12.40;93.40;;;;;;6159623;23;20017;-88
2023/06/03 04:43:45;;;;;;;2.35;0.90;;;12.30;93.70;;;;;;6185749;23;20457;-88
2023/06/03 04:46:12;;;;;;;2.92;1.17;;;12.30;93.40;;;;;;6185852;23;20013;-87
2023/06/03 04:48:41;;;;;;;2.70;1.13;;;12.30;93.50;;;;;;6158424;23;20382;-88
2023/06/03 04:51:17;;;;;;;3.28;1.00;;;12.20;93.50;;;;;;6185852;23;20048;-88
2023/06/03 04:53:42;;;;;;;3.17;0.98;;;12.20;93.40;;;;;;6159727;23;20469;-88
2023/06/03 04:56:08;;;;;;;1.85;0.90;;;12.20;93.40;;;;;;6185708;23;20017;-88
2023/06/03 04:58:36;;;;;;;2.88;1.00;;;12.20;93.40;;;;;;6186192;23;20021;-88
2023/06/03 05:01:04;;;;;;;3.38;1.20;;;12.20;93.30;;;;;;6185863;23;20449;-87
2023/06/03 05:03:30;;;;;;;2.70;1.08;;;12.10;93.40;;;;;;6186775;23;20049;-89
2023/06/03 05:05:57;;;;;;;2.67;1.10;;;12.10;93.50;;;;;;6159373;23;20013;-89
2023/06/03 05:08:23;;;;;;;5.18;1.23;;;12.10;93.70;;;;;;6160151;23;20017;-88
2023/06/03 05:10:49;;;;;;;4.22;1.20;;;12.20;93.70;;;;;;6173946;23;20021;-88
2023/06/03 05:13:14;;;;;;;4.47;1.10;;;12.20;93.80;;;;;;6186827;23;20099;-88
2023/06/03 05:15:40;;;;;;;3.30;1.15;;;12.20;93.90;;;;;;6161111;23;20330;-87
2023/06/03 05:18:06;;;;;;;3.83;1.30;;;12.20;93.70;;;;;;6161274;23;20027;-88
2023/06/03 05:20:32;;;;;;;2.97;1.13;;;12.20;93.70;;;;;;6160702;23;20045;-87
2023/06/03 05:22:58;;;;;;;2.65;1.05;;;12.20;93.60;;;;;;6158999;23;20020;-88
2023/06/03 05:25:23;;;;;;;2.75;1.10;;;12.20;93.60;;;;;;6159900;23;20353;-87
2023/06/03 05:27:49;;;;;;;4.07;1.20;;;12.10;93.70;;;;;;6159877;23;20021;-87
2023/06/03 05:30:15;;;;;;;4.35;1.27;;;12.20;93.90;;;;;;6187612;23;20024;-87
2023/06/03 05:32:41;;;;;;;3.72;1.20;;;12.20;93.80;;;;;;6162579;23;20013;-88
2023/06/03 05:35:08;;;;;;;2.95;1.15;;;12.20;93.80;;;;;;6163508;23;20021;-88
2023/06/03 05:37:34;;;;;;;4.13;1.10;;;12.10;93.90;;;;;;6188297;23;20020;-89
2023/06/03 05:39:59;;;;;;;3.20;1.20;;;12.20;94.00;;;;;;6161665;23;20028;-89
2023/06/03 05:42:25;;;;;;;2.97;1.15;;;12.20;94.00;;;;;;6161332;23;20024;-88
2023/06/03 05:44:51;;;;;;;2.85;1.08;;;12.20;94.10;;;;;;6160628;23;20025;-88
2023/06/03 05:47:16;;;;;;;2.45;1.00;;;12.20;94.10;;;;;;6188097;23;20017;-88
2023/06/03 05:49:42;;;;;;;2.00;1.00;;;12.20;94.10;;;;;;6186936;23;20018;-88
2023/06/03 05:52:55;;;;;;;3.50;1.27;;;12.20;94.10;;;;;;6160175;23;20079;-89
2023/06/03 05:55:35;;;;;;;2.95;1.10;;;12.30;94.00;;;;;;6034763;23;20023;-89
2023/06/03 05:58:01;;;;;;;3.25;1.08;;;12.30;94.10;;;;;;6180059;23;20055;-87
2023/06/03 06:00:29;;;;;;;3.35;1.40;;;12.30;94.00;;;;;;6188118;23;20024;-89
2023/06/03 06:02:55;;;;;;;4.47;1.30;;;12.30;94.00;;;;;;6187954;23;20013;-90
2023/06/03 06:05:21;;;;;;;3.40;1.15;;;12.30;94.00;;;;;;6161070;23;20017;-87
2023/06/03 06:07:47;;;;;;;3.72;1.05;;;12.40;94.20;;;;;;6160893;23;20024;-90
2023/06/03 06:10:12;;;;;;;4.25;1.08;;;12.40;94.00;;;;;;6188178;23;20048;-90
2023/06/03 06:12:38;;;;;;;4.63;1.15;;;12.50;94.00;;;;;;6160962;23;20036;-90
2023/06/03 06:15:04;;;;;;;3.83;1.20;;;12.50;94.20;;;;;;6161621;23;20028;-90
2023/06/03 06:17:30;;;;;;;5.50;1.00;;;12.50;93.90;;;;;;6161407;23;20434;-90
2023/06/03 06:19:56;;;;;;;6.15;1.10;;;12.50;93.80;;;;;;6160175;23;20028;-91
2023/06/03 06:22:24;;;;;;;3.05;1.20;;;12.60;93.90;;;;;;6187945;23;20384;-88
2023/06/03 06:24:50;;;;;;;4.15;1.30;;;12.60;93.80;;;;;;6187187;23;20084;-88
2023/06/03 06:27:47;;;;;;;2.88;1.15;;;12.60;93.90;;;;;;6159644;23;20496;-89
2023/06/03 06:30:17;;;;;;;5.18;1.00;;;12.70;93.90;;;;;;6160806;23;20028;-88
2023/06/03 06:32:51;;;;;;;4.90;1.30;;;12.80;93.80;;;;;;6185927;23;20032;-89
2023/06/03 06:35:18;;;;;;;4.40;1.05;;;12.80;93.70;;;;;;6159967;23;20017;-90
2023/06/03 06:37:44;;;;;;;3.72;1.35;;;12.90;93.70;;;;;;6186203;23;20057;-89
2023/06/03 06:40:19;;;;;;;3.80;1.08;;;12.90;93.70;;;;;;6159422;23;20099;-86
2023/06/03 06:42:45;;;;;;;3.17;0.98;;;12.90;93.60;;;;;;6186032;23;20447;-89
2023/06/03 06:45:28;;;;;;;2.20;0.93;;;13.00;93.70;;;;;;6187289;23;20088;-87
2023/06/03 06:48:06;;;;;;;2.60;0.97;;;13.10;93.90;;;;;;6185683;23;20473;-88
2023/06/03 06:50:56;;;;;;;2.55;1.00;;;13.10;93.50;;;;;;6160276;23;20017;-85
2023/06/03 06:53:24;;;;;;;3.00;1.13;;;13.20;92.80;;;;;;6168230;23;20044;-87
2023/06/03 06:55:56;;;;;;;3.22;1.15;;;13.20;92.90;;;;;;6159115;23;20021;-87
2023/06/03 06:58:24;;;;;;;2.67;1.05;;;13.30;93.00;;;;;;6187203;23;20084;-88
2023/06/03 07:00:50;;;;;;;2.53;0.95;;;13.40;93.10;;;;;;6159263;23;20096;-89
2023/06/03 07:03:19;;;;;;;3.85;1.20;;;13.50;93.00;;;;;;6160674;23;20071;-89
2023/06/03 07:05:46;;;;;;;3.25;1.00;;;13.60;92.50;;;;;;6186273;23;20096;-88
2023/06/03 07:08:12;;;;;;;2.10;0.90;;;13.70;92.70;;;;;;6185858;23;20036;-87
2023/06/03 07:10:38;;;;;;;2.53;0.90;;;13.80;92.90;;;;;;6186226;23;20042;-89
2023/06/03 07:13:06;;;;;;;3.30;1.00;;;13.90;93.00;;;;;;6159864;23;20056;-87
2023/06/03 07:15:32;;;;;;;3.95;1.10;;;14.00;92.60;;;;;;6184873;23;20380;-87
2023/06/03 07:17:58;;;;;;;2.83;0.80;;;14.20;92.70;;;;;;6185870;23;20013;-87
2023/06/03 07:20:38;;;;;;;3.83;1.00;;;14.30;92.70;;;;;;6187026;23;20017;-88
2023/06/03 07:23:12;;;;;;;3.08;1.15;;;14.30;92.40;;;;;;6159630;23;20453;-89
2023/06/03 07:25:49;;;;;;;3.03;1.10;;;14.50;92.50;;;;;;6185550;23;20505;-89
2023/06/03 07:28:17;;;;;;;2.47;0.88;;;14.60;92.40;;;;;;6160214;23;20041;-89
2023/06/03 07:30:44;;;;;;;1.70;0.80;;;14.70;92.50;;;;;;6185622;23;20048;-89
2023/06/03 07:33:25;;;;;;;3.35;0.88;;;14.80;92.00;;;;;;6186617;23;20013;-89
2023/06/03 07:35:55;;;;;;;3.08;1.00;;;14.90;91.30;;;;;;6159039;23;20438;-89
2023/06/03 07:38:46;;;;;;;2.70;1.00;;;15.00;90.10;;;;;;6186098;23;20055;-87
2023/06/03 07:41:19;;;;;;;3.65;0.95;;;15.20;90.90;;;;;;6159756;23;20021;-88
2023/06/03 07:43:44;;;;;;;4.17;1.17;;;15.30;91.00;;;;;;6158993;23;20048;-90
2023/06/03 07:46:10;;;;;;;3.28;1.08;;;15.40;91.00;;;;;;6160540;23;20032;-90
2023/06/03 07:48:39;;;;;;;2.33;0.75;;;15.50;90.80;;;;;;6159542;23;20013;-89
2023/06/03 07:51:05;;;;;;;3.92;0.77;;;15.60;90.70;;;;;;6185202;23;20442;-90
2023/06/03 07:53:35;;;;;;;2.80;0.90;;;15.70;90.60;;;;;;6186299;23;20013;-89
2023/06/03 07:56:09;;;;;;;3.20;0.90;;;15.90;90.10;;;;;;6159987;23;20028;-87
2023/06/03 07:58:37;;;;;;;2.70;0.80;;;15.90;90.50;;;;;;6186026;23;20334;-88
2023/06/03 08:01:04;;;;;;;5.75;0.93;;;16.10;90.70;;;;;;6159630;23;20378;-87
2023/06/03 08:03:30;;;;;;;5.50;1.10;;;16.10;89.50;;;;;;6159307;23;20092;-90
2023/06/03 08:05:56;;;;;;;6.85;1.10;;;16.30;88.80;;;;;;6158366;23;20017;-89
2023/06/03 08:08:30;;;;;;;3.95;0.88;;;16.30;89.10;;;;;;6186242;23;20033;-91
2023/06/03 08:10:56;;;;;;;3.70;0.88;;;16.40;88.70;;;;;;6159056;23;20397;-88
2023/06/03 08:13:21;;;;;;;3.58;0.68;;;16.60;88.70;;;;;;6159665;23;20016;-90
2023/06/03 08:15:48;;;;;;;2.92;0.95;;;16.60;88.50;;;;;;6186714;23;20092;-91
2023/06/03 08:18:42;;;;;;;2.78;1.00;;;16.80;89.40;;;;;;6159861;23;20338;-90
2023/06/03 08:21:08;;;;;;;2.33;1.00;;;16.90;89.10;;;;;;6186120;23;20017;-89
2023/06/03 08:23:33;;;;;;;3.95;1.00;;;17.00;88.30;;;;;;6185843;23;20017;-88
2023/06/03 08:26:00;;;;;;;3.33;1.10;;;17.00;84.90;;;;;;6158637;23;20338;-88
2023/06/03 08:28:26;;;;;;;2.90;0.70;;;17.20;87.00;;;;;;6186186;23;20017;-90
2023/06/03 08:30:53;;;;;;;3.92;0.80;;;17.20;88.10;;;;;;6185898;23;20021;-89
2023/06/03 08:33:18;;;;;;;4.90;0.95;;;17.20;88.50;;;;;;6158957;23;20044;-91
2023/06/03 08:35:44;;;;;;;3.35;0.85;;;17.30;89.00;;;;;;6185951;23;20021;-92
2023/06/03 08:38:10;;;;;;;5.32;0.90;;;17.30;86.80;;;;;;6186388;23;20080;-91
2023/06/03 08:40:45;;;;;;;2.28;0.90;;;17.40;88.40;;;;;;6158728;23;20017;-91
2023/06/03 08:43:11;;;;;;;2.63;1.00;;;17.40;87.80;;;;;;6185842;23;20349;-90
2023/06/03 08:45:42;;;;;;;3.00;0.90;;;17.40;88.40;;;;;;6185763;23;20084;-90
2023/06/03 08:48:33;;;;;;;1.70;0.70;;;17.50;86.60;;;;;;6159360;23;20013;-91
2023/06/03 08:51:05;;;;;;;4.20;1.08;;;17.50;87.50;;;;;;6120524;23;20091;-91
2023/06/03 08:53:44;;;;;;;2.80;0.65;;;17.50;88.50;;;;;;6159819;23;20024;-92
2023/06/03 08:56:17;;;;;;;2.30;0.80;;;17.50;88.90;;;;;;6161938;23;20013;-93
2023/06/03 08:58:52;;;;;;;2.35;0.90;;;17.60;88.90;;;;;;6186339;23;20075;-92
2023/06/03 09:01:21;;;;;;;5.47;0.88;;;17.60;86.30;;;;;;6159052;23;20033;-93
2023/06/03 09:03:48;;;;;;;1.98;0.75;;;17.60;82.40;;;;;;6158878;23;20013;-91
2023/06/03 09:06:14;;;;;;;2.67;0.80;;;17.60;85.90;;;;;;6160270;23;20075;-91
2023/06/03 09:08:40;;;;;;;2.70;0.80;;;17.70;86.50;;;;;;6183968;23;20529;-88
2023/06/03 09:11:07;;;;;;;3.55;0.88;;;17.80;87.00;;;;;;6158893;23;20021;-89
2023/06/03 09:13:33;;;;;;;2.33;0.80;;;17.90;87.20;;;;;;6158990;23;20045;-91
2023/06/03 09:15:59;;;;;;;4.93;1.00;;;17.90;87.50;;;;;;6158812;23;20346;-91
2023/06/03 09:18:25;;;;;;;4.10;0.90;;;18.00;83.00;;;;;;6185504;23;20096;-91
2023/06/03 09:20:51;;;;;;;2.83;0.80;;;18.10;84.70;;;;;;6185800;23;20464;-92
2023/06/03 09:23:18;;;;;;;1.63;0.70;;;18.20;87.10;;;;;;6159275;23;20021;-91
2023/06/03 09:25:44;;;;;;;2.75;0.93;;;18.30;87.20;;;;;;6159238;23;20021;-89
2023/06/03 09:28:11;;;;;;;4.15;0.73;;;18.30;87.60;;;;;;6185993;23;20493;-87
2023/06/03 09:30:37;;;;;;;3.63;0.90;;;18.50;88.20;;;;;;6157276;23;20021;-86
2023/06/03 09:33:02;;;;;;;6.30;0.85;;;18.60;86.60;;;;;;6158558;23;20028;-85
2023/06/03 09:35:28;;;;;;;4.75;0.93;;;18.60;83.40;;;;;;6184365;23;20020;-88
2023/06/03 09:38:00;;;;;;;2.03;0.90;;;18.70;83.80;;;;;;6158304;23;20018;-90
2023/06/03 09:40:30;;;;;;;2.58;0.88;;;18.80;85.90;;;;;;6185681;23;20009;-90
2023/06/03 09:42:56;;;;;;;2.95;0.82;;;18.90;85.40;;;;;;6157268;23;20013;-89
2023/06/03 09:45:33;;;;;;;2.92;0.70;;;18.90;80.50;;;;;;6158046;23;20438;-89
2023/06/03 09:48:00;;;;;;;3.03;0.80;;;19.00;82.60;;;;;;6158979;23;20021;-88
2023/06/03 09:50:27;;;;;;;2.08;0.70;;;19.10;84.00;;;;;;6156835;23;20451;-87
2023/06/03 09:52:53;;;;;;;3.17;0.82;;;19.20;83.40;;;;;;6156492;23;20013;-89
2023/06/03 09:55:20;;;;;;;2.40;0.70;;;19.30;77.10;;;;;;6156810;23;20044;-88
2023/06/03 09:58:12;;;;;;;2.28;0.70;;;19.30;74.50;;;;;;6154235;23;20485;-89
2023/06/03 10:00:51;;;;;;;2.88;0.70;;;19.40;79.60;;;;;;6158141;23;20017;-91
2023/06/03 10:03:28;;;;;;;2.75;0.80;;;19.50;80.20;;;;;;6159286;23;20381;-93
2023/06/03 10:05:53;;;;;;;2.63;0.68;;;19.60;83.00;;;;;;6158456;23;20020;-90
2023/06/03 10:08:31;;;;;;;4.05;0.73;;;19.70;83.20;;;;;;6158732;23;20036;-90
2023/06/03 10:11:16;;;;;;;3.15;0.80;;;19.80;77.10;;;;;;6183163;23;20069;-90
2023/06/03 10:13:47;;;;;;;2.47;0.80;;;19.80;79.80;;;;;;6160154;23;20021;-90
2023/06/03 10:16:13;;;;;;;4.85;0.70;;;19.90;82.90;;;;;;6159595;23;20021;-91
2023/06/03 10:18:40;;;;;;;2.08;0.70;;;20.00;83.90;;;;;;6159708;23;20021;-90
2023/06/03 10:21:11;;;;;;;1.75;0.63;;;20.10;83.80;;;;;;6160956;23;20021;-90
2023/06/03 10:23:39;;;;;;;2.47;0.85;;;20.20;84.40;;;;;;6160262;23;20017;-91
2023/06/03 10:26:06;;;;;;;5.07;0.88;;;20.30;84.20;;;;;;6186285;23;20013;-86
2023/06/03 10:28:32;;;;;;;2.45;0.70;;;20.30;83.00;;;;;;6185523;23;20059;-88
2023/06/03 10:31:00;;;;;;;4.32;0.98;;;20.40;81.10;;;;;;6186814;23;20021;-89
2023/06/03 10:33:27;;;;;;;2.53;0.70;;;20.40;77.20;;;;;;6185629;23;20319;-89
2023/06/03 10:35:56;;;;;;;2.95;0.80;;;20.50;79.00;;;;;;6186688;23;20017;-90
2023/06/03 10:38:22;;;;;;;3.33;0.80;;;20.50;69.10;;;;;;6160411;23;20091;-90
2023/06/03 10:40:49;;;;;;;3.10;0.57;;;20.60;77.40;;;;;;6185724;23;20251;-89
2023/06/03 10:43:16;;;;;;;3.20;0.73;;;20.70;77.30;;;;;;6160325;23;20107;-88
2023/06/03 10:45:43;;;;;;;2.05;0.70;;;20.70;75.10;;;;;;6158758;23;20350;-87
2023/06/03 10:48:13;;;;;;;3.47;0.85;;;20.80;77.30;;;;;;6186193;23;20441;-89
2023/06/03 10:50:47;;;;;;;2.88;0.70;;;20.80;80.30;;;;;;6159227;23;20341;-88
2023/06/03 10:53:20;;;;;;;6.03;0.75;;;20.90;82.40;;;;;;6159035;23;20076;-87
2023/06/03 10:56:05;;;;;;;3.27;0.77;;;21.00;79.50;;;;;;6159714;23;20021;-90
2023/06/03 10:58:31;;;;;;;3.05;0.93;;;21.10;79.40;;;;;;6160239;23;20096;-91
2023/06/03 11:01:00;;;;;;;3.13;0.77;;;21.10;80.20;;;;;;6159297;23;20044;-89
2023/06/03 11:03:27;;;;;;;2.90;0.68;;;21.20;81.10;;;;;;6186530;23;20024;-89
2023/06/03 11:06:13;;;;;;;1.75;0.65;;;21.30;81.70;;;;;;6185444;23;20092;-89
2023/06/03 11:09:03;;;;;;;3.38;0.63;;;21.30;82.20;;;;;;6184676;23;20052;-88
2023/06/03 11:11:41;;;;;;;3.30;0.82;;;21.40;77.10;;;;;;6159676;23;20092;-89
2023/06/03 11:14:44;;;;;;;3.08;0.82;;;21.40;80.90;;;;;;6158919;23;20032;-89
2023/06/03 11:17:12;;;;;;;3.17;0.82;;;21.50;81.80;;;;;;6086203;23;20374;-90
2023/06/03 11:19:45;;;;;;;2.45;0.80;;;21.50;80.70;;;;;;6185750;23;20017;-87
2023/06/03 11:22:36;;;;;;;3.85;1.00;;;21.60;79.90;;;;;;6185424;23;20072;-90
2023/06/03 11:25:02;;;;;;;4.53;0.88;;;21.70;80.10;;;;;;6142239;23;20025;-88
2023/06/03 11:27:30;;;;;;;2.47;0.80;;;21.70;70.50;;;;;;6185885;23;20009;-89
2023/06/03 11:29:56;;;;;;;4.13;0.80;;;21.80;78.30;;;;;;6158560;23;20076;-89
2023/06/03 11:32:27;;;;;;;2.03;0.80;;;21.80;79.30;;;;;;6159770;23;20144;-91
2023/06/03 11:34:59;;;;;;;2.38;0.80;;;21.90;80.70;;;;;;6185811;23;20516;-93
2023/06/03 11:37:52;;;;;;;2.45;0.73;;;22.00;81.60;;;;;;6160254;23;20016;-89
2023/06/03 11:40:19;;;;;;;4.70;0.90;;;22.10;81.60;;;;;;6160276;23;20017;-90
2023/06/03 11:42:48;;;;;;;2.45;0.70;;;22.20;80.80;;;;;;6186224;23;20064;-93
2023/06/03 11:45:17;;;;;;;3.03;0.90;;;22.20;81.50;;;;;;6159917;23;20021;-92
2023/06/03 11:47:52;;;;;;;2.05;0.80;;;22.30;81.50;;;;;;6185929;23;20049;-90
2023/06/03 11:50:19;;;;;;;2.65;0.80;;;22.40;82.20;;;;;;6159270;23;20024;-91
2023/06/03 11:52:45;;;;;;;2.70;0.70;;;22.40;82.10;;;;;;6159866;23;20017;-92
2023/06/03 11:55:11;;;;;;;3.05;1.00;;;22.50;81.10;;;;;;6186548;23;20023;-91
2023/06/03 11:57:39;;;;;;;4.22;1.13;;;22.60;81.10;;;;;;6158970;23;20013;-91
2023/06/03 12:00:10;;;;;;;2.75;0.70;;;22.60;82.00;;;;;;6186377;23;20044;-91
2023/06/03 12:02:40;;;;;;;4.10;0.70;;;22.60;81.60;;;;;;6159964;23;20012;-91
2023/06/03 12:05:09;;;;;;;2.80;0.88;;;22.70;81.90;;;;;;6185277;23;20438;-92
2023/06/03 12:07:58;;;;;;;4.40;0.95;;;22.70;81.60;;;;;;6186011;23;20092;-92
2023/06/03 12:10:24;;;;;;;2.08;0.80;;;22.70;70.00;;;;;;6186036;23;20632;-90
2023/06/03 12:12:59;;;;;;;3.30;0.85;;;22.80;74.50;;;;;;6186252;23;20048;-92
2023/06/03 12:15:50;;;;;;;3.58;0.80;;;22.80;78.70;;;;;;6187132;23;20013;-91
2023/06/03 12:18:16;;;;;;;4.18;0.90;;;23.00;77.20;;;;;;6186796;23;20024;-91
2023/06/03 12:20:44;;;;;;;2.75;1.00;;;23.00;73.30;;;;;;6161224;23;20009;-91
2023/06/03 12:23:10;;;;;;;3.00;0.93;;;23.00;71.90;;;;;;6187931;23;20017;-89
2023/06/03 12:25:36;;;;;;;3.58;0.90;;;23.10;78.00;;;;;;6186409;23;20441;-91
2023/06/03 12:28:24;;;;;;;4.60;1.00;;;23.10;77.00;;;;;;6186471;23;20055;-91
2023/06/03 12:30:50;;;;;;;2.47;0.70;;;23.20;77.20;;;;;;6185840;23;20017;-89
2023/06/03 12:33:17;;;;;;;2.58;0.82;;;23.20;75.70;;;;;;6185426;23;20013;-89
2023/06/03 12:35:56;;;;;;;6.00;0.90;;;23.30;77.40;;;;;;6158204;23;20024;-88
2023/06/03 12:38:23;;;;;;;5.60;1.10;;;23.30;74.40;;;;;;6184525;23;20009;-86
2023/06/03 12:40:49;;;;;;;5.75;0.80;;;23.30;74.20;;;;;;6184897;23;20449;-87
2023/06/03 12:43:19;;;;;;;2.60;0.82;;;23.40;76.30;;;;;;6185412;23;20107;-88
2023/06/03 12:45:45;;;;;;;3.00;0.80;;;23.40;74.30;;;;;;6184531;23;20028;-86
2023/06/03 12:48:28;;;;;;;3.65;0.73;;;23.40;74.70;;;;;;6185510;23;20017;-85
2023/06/03 12:50:54;;;;;;;1.92;0.80;;;23.40;77.10;;;;;;6184629;23;20099;-88
2023/06/03 12:53:21;;;;;;;2.10;0.70;;;23.50;78.40;;;;;;6158215;23;20048;-88
2023/06/03 12:55:46;;;;;;;3.25;0.93;;;23.50;76.70;;;;;;6185043;23;20556;-90
2023/06/03 12:58:12;;;;;;;3.28;0.80;;;23.60;78.50;;;;;;6158786;23;20048;-90
2023/06/03 13:00:38;;;;;;;6.72;1.02;;;23.70;78.60;;;;;;6184223;23;20005;-88